createdAt,value
2018-04-13T00:00:26.686Z,100289.69
2018-04-13T00:01:30.939Z,100283.84
2018-04-13T00:02:35.152Z,100291.42
2018-04-13T00:03:39.279Z,100304.13
2018-04-13T00:04:44.442Z,100308.63
2018-04-13T00:05:48.705Z,100311.08
2018-04-13T00:06:52.827Z,100321.48
2018-04-13T00:07:57.059Z,100337.45
2018-04-13T00:09:01.175Z,100339.59
2018-04-13T00:10:05.583Z,100351.80
2018-04-13T00:11:10.034Z,100372.00
2018-04-13T00:12:14.949Z,100397.30
2018-04-13T00:13:19.079Z,100425.34
2018-04-13T00:14:23.180Z,100434.67
2018-04-13T00:15:28.058Z,100429.55
2018-04-13T00:16:33.134Z,100420.78
2018-04-13T00:17:37.258Z,100414.97
2018-04-13T00:18:41.731Z,100416.20
2018-04-13T00:19:45.856Z,100416.84
2018-04-13T00:20:50.085Z,100424.70
2018-04-13T00:21:54.251Z,100414.77
2018-04-13T00:22:58.707Z,100414.92
2018-04-13T00:24:03.342Z,100406.00
2018-04-13T00:25:07.961Z,100399.95
2018-04-13T00:26:12.118Z,100398.23
2018-04-13T00:27:16.965Z,100391.11
2018-04-13T00:28:21.077Z,100390.80
2018-04-13T00:29:25.489Z,100381.50
2018-04-13T00:30:29.936Z,100371.91
2018-04-13T00:31:34.053Z,100372.61
2018-04-13T00:32:38.373Z,100372.66
2018-04-13T00:33:42.555Z,100370.03
2018-04-13T00:34:46.659Z,100377.02
2018-04-13T00:35:51.086Z,100377.89
2018-04-13T00:36:55.191Z,100382.84
2018-04-13T00:37:59.406Z,100380.77
2018-04-13T00:39:03.738Z,100384.86
2018-04-13T00:40:08.145Z,100385.39
2018-04-13T00:41:12.347Z,100389.02
2018-04-13T00:42:17.043Z,100392.28
2018-04-13T00:43:21.240Z,100386.74
2018-04-13T00:44:25.414Z,100385.69
2018-04-13T00:45:29.721Z,100388.48
2018-04-13T00:46:33.859Z,100392.17
2018-04-13T00:47:38.593Z,100387.74
2018-04-13T00:48:43.579Z,100389.33
2018-04-13T00:49:47.739Z,100383.22
2018-04-13T00:50:51.903Z,100361.38
2018-04-13T00:51:56.007Z,100356.92
2018-04-13T00:53:08.829Z,100357.69
2018-04-13T00:54:13.709Z,100354.18
2018-04-13T00:55:18.239Z,100357.65
2018-04-13T00:56:22.391Z,100358.16
2018-04-13T00:57:26.497Z,100366.73
2018-04-13T00:58:30.714Z,100382.83
2018-04-13T00:59:34.929Z,100404.09
2018-04-13T01:00:39.677Z,100417.84
2018-04-13T01:01:44.194Z,100424.55
2018-04-13T01:02:48.436Z,100419.98
2018-04-13T01:03:52.971Z,100423.44
2018-04-13T01:04:57.399Z,100424.91
2018-04-13T01:06:01.554Z,100427.70
2018-04-13T01:07:06.035Z,100431.50
2018-04-13T01:08:10.819Z,100420.53
2018-04-13T01:09:15.859Z,100410.80
2018-04-13T01:10:20.201Z,100410.29
2018-04-13T01:11:24.700Z,100414.63
2018-04-13T01:12:29.413Z,100416.77
2018-04-13T01:13:33.839Z,100413.69
2018-04-13T01:14:38.693Z,100420.24
2018-04-13T01:15:43.075Z,100412.03
2018-04-13T01:16:47.172Z,100410.33
2018-04-13T01:17:51.334Z,100417.71
2018-04-13T01:18:55.423Z,100411.20
2018-04-13T01:19:59.582Z,100409.17
2018-04-13T01:21:03.702Z,100410.33
2018-04-13T01:22:07.804Z,100407.51
2018-04-13T01:23:11.974Z,100410.41
2018-04-13T01:24:17.150Z,100402.48
2018-04-13T01:25:21.597Z,100399.44
2018-04-13T01:26:26.015Z,100399.05
2018-04-13T01:27:30.272Z,100398.86
2018-04-13T01:28:34.404Z,100401.47
2018-04-13T01:29:38.600Z,100395.42
2018-04-13T01:30:43.143Z,100394.08
2018-04-13T01:31:47.285Z,100389.23
2018-04-13T01:32:52.035Z,100383.04
2018-04-13T01:33:56.185Z,100368.31
2018-04-13T01:35:00.879Z,100364.98
2018-04-13T01:36:05.037Z,100360.87
2018-04-13T01:37:09.134Z,100353.02
2018-04-13T01:38:13.873Z,100349.19
2018-04-13T01:39:18.948Z,100343.51
2018-04-13T01:40:23.347Z,100346.22
2018-04-13T01:41:27.945Z,100336.45
2018-04-13T01:42:32.043Z,100338.16
2018-04-13T01:43:36.607Z,100341.44
2018-04-13T01:44:40.962Z,100334.63
2018-04-13T01:45:45.355Z,100332.59
2018-04-13T01:46:50.336Z,100337.95
2018-04-13T01:47:54.923Z,100336.17
2018-04-13T01:48:59.582Z,100343.02
2018-04-13T01:50:04.097Z,100343.73
2018-04-13T01:51:08.662Z,100336.25
2018-04-13T01:52:13.194Z,100346.83
2018-04-13T01:53:18.084Z,100341.66
2018-04-13T01:54:22.368Z,100343.61
2018-04-13T01:55:26.486Z,100343.83
2018-04-13T01:56:30.612Z,100345.95
2018-04-13T01:57:35.069Z,100332.45
2018-04-13T01:58:39.228Z,100334.30
2018-04-13T01:59:43.435Z,100331.08
2018-04-13T02:00:48.265Z,100327.70
2018-04-13T02:01:52.348Z,100327.48
2018-04-13T02:02:56.551Z,100322.48
2018-04-13T02:04:01.019Z,100316.14
2018-04-13T02:05:05.266Z,100322.37
2018-04-13T02:06:09.728Z,100316.96
2018-04-13T02:07:14.141Z,100314.70
2018-04-13T02:08:19.256Z,100316.84
2018-04-13T02:09:23.469Z,100313.66
2018-04-13T02:10:27.929Z,100303.27
2018-04-13T02:11:32.357Z,100303.68
2018-04-13T02:12:37.241Z,100308.45
2018-04-13T02:13:41.453Z,100304.00
2018-04-13T02:14:47.241Z,100302.91
2018-04-13T02:15:51.625Z,100303.22
2018-04-13T02:16:56.091Z,100293.53
2018-04-13T02:18:00.381Z,100290.70
2018-04-13T02:19:04.601Z,100288.30
2018-04-13T02:20:08.718Z,100288.27
2018-04-13T02:21:12.863Z,100287.16
2018-04-13T02:22:17.857Z,100281.95
2018-04-13T02:23:22.389Z,100273.80
2018-04-13T02:24:26.566Z,100266.70
2018-04-13T02:25:30.751Z,100262.88
2018-04-13T02:26:34.899Z,100250.08
2018-04-13T02:27:39.014Z,100243.61
2018-04-13T02:28:43.234Z,100243.30
2018-04-13T02:29:47.370Z,100232.83
2018-04-13T02:30:51.851Z,100237.34
2018-04-13T02:31:55.973Z,100232.95
2018-04-13T02:33:00.498Z,100238.77
2018-04-13T02:34:04.628Z,100236.75
2018-04-13T02:35:09.094Z,100242.55
2018-04-13T02:36:14.084Z,100249.45
2018-04-13T02:37:19.139Z,100262.33
2018-04-13T02:38:23.504Z,100272.30
2018-04-13T02:39:27.737Z,100270.81
2018-04-13T02:40:31.856Z,100274.26
2018-04-13T02:41:36.090Z,100268.52
2018-04-13T02:42:40.211Z,100262.14
2018-04-13T02:43:44.354Z,100261.60
2018-04-13T02:44:48.606Z,100259.62
2018-04-13T02:45:53.055Z,100262.59
2018-04-13T02:46:57.431Z,100254.66
2018-04-13T02:48:01.742Z,100257.30
2018-04-13T02:49:06.059Z,100247.66
2018-04-13T02:50:10.152Z,100252.24
2018-04-13T02:51:14.266Z,100247.58
2018-04-13T02:52:18.641Z,100246.75
2018-04-13T02:53:23.084Z,100244.08
2018-04-13T02:54:27.216Z,100249.67
2018-04-13T02:55:31.332Z,100264.19
2018-04-13T02:56:35.866Z,100269.29
2018-04-13T02:57:40.061Z,100274.14
2018-04-13T02:58:45.221Z,100271.70
2018-04-13T02:59:49.635Z,100270.48
2018-04-13T03:00:53.971Z,100263.23
2018-04-13T03:01:58.085Z,100271.66
2018-04-13T03:03:02.321Z,100267.54
2018-04-13T03:04:06.444Z,100264.22
2018-04-13T03:05:10.551Z,100260.87
2018-04-13T03:06:15.265Z,100264.59
2018-04-13T03:07:19.489Z,100265.34
2018-04-13T03:08:23.627Z,100270.27
2018-04-13T03:09:27.737Z,100276.19
2018-04-13T03:10:31.841Z,100268.56
2018-04-13T03:11:36.114Z,100272.55
2018-04-13T03:12:40.627Z,100274.47
2018-04-13T03:13:45.000Z,100279.32
2018-04-13T03:14:49.209Z,100289.41
2018-04-13T03:15:53.617Z,100296.12
2018-04-13T03:16:57.727Z,100297.39
2018-04-13T03:18:01.926Z,100297.31
2018-04-13T03:19:06.998Z,100287.98
2018-04-13T03:20:11.116Z,100291.34
2018-04-13T03:21:16.360Z,100305.83
2018-04-13T03:22:20.560Z,100303.05
2018-04-13T03:23:24.678Z,100304.28
2018-04-13T03:24:28.794Z,100305.37
2018-04-13T03:25:33.309Z,100308.92
2018-04-13T03:26:37.422Z,100304.61
2018-04-13T03:27:41.550Z,100310.05
2018-04-13T03:28:45.684Z,100305.20
2018-04-13T03:29:49.801Z,100309.25
2018-04-13T03:30:54.451Z,100310.83
2018-04-13T03:31:58.910Z,100306.08
2018-04-13T03:33:03.036Z,100307.25
2018-04-13T03:34:07.164Z,100308.69
2018-04-13T03:35:11.289Z,100312.95
2018-04-13T03:36:15.485Z,100317.19
2018-04-13T03:37:20.401Z,100320.33
2018-04-13T03:38:24.517Z,100317.90
2018-04-13T03:39:28.625Z,100322.24
2018-04-13T03:40:32.741Z,100319.23
2018-04-13T03:41:37.045Z,100310.84
2018-04-13T03:42:41.204Z,100321.66
2018-04-13T03:43:45.309Z,100319.95
2018-04-13T03:44:50.732Z,100318.81
2018-04-13T03:45:55.095Z,100329.47
2018-04-13T03:46:59.253Z,100335.31
2018-04-13T03:48:03.390Z,100331.67
2018-04-13T03:49:07.568Z,100330.61
2018-04-13T03:50:11.678Z,100332.38
2018-04-13T03:51:15.794Z,100331.14
2018-04-13T03:52:19.923Z,100332.45
2018-04-13T03:53:24.523Z,100336.86
2018-04-13T03:54:29.159Z,100331.42
2018-04-13T03:55:33.338Z,100342.98
2018-04-13T03:56:37.864Z,100338.13
2018-04-13T03:57:42.008Z,100342.84
2018-04-13T03:58:46.610Z,100343.45
2018-04-13T03:59:51.233Z,100346.06
2018-04-13T04:00:55.837Z,100353.98
2018-04-13T04:02:00.250Z,100351.01
2018-04-13T04:03:04.645Z,100351.23
2018-04-13T04:04:08.869Z,100345.42
2018-04-13T04:05:12.995Z,100344.39
2018-04-13T04:06:17.247Z,100346.38
2018-04-13T04:07:21.383Z,100341.70
2018-04-13T04:08:25.524Z,100346.84
2018-04-13T04:09:29.939Z,100351.09
2018-04-13T04:10:34.072Z,100349.72
2018-04-13T04:11:38.514Z,100351.95
2018-04-13T04:12:42.715Z,100348.42
2018-04-13T04:13:46.925Z,100345.44
2018-04-13T04:14:52.730Z,100358.81
2018-04-13T04:15:57.344Z,100356.13
2018-04-13T04:17:01.523Z,100358.50
2018-04-13T04:18:05.676Z,100360.03
2018-04-13T04:19:09.784Z,100353.62
2018-04-13T04:20:25.036Z,100356.44
2018-04-13T04:21:40.051Z,100355.73
2018-04-13T04:25:00.764Z,100349.16
2018-04-13T04:27:09.754Z,100354.12
2018-04-13T04:28:13.888Z,100370.80
2018-04-13T04:29:19.008Z,100380.06
2018-04-13T04:30:23.630Z,100388.81
2018-04-13T04:31:27.738Z,100391.53
2018-04-13T04:32:32.185Z,100398.48
2018-04-13T04:33:36.415Z,100411.91
2018-04-13T04:34:40.569Z,100406.98
2018-04-13T04:35:44.706Z,100421.50
2018-04-13T04:36:48.856Z,100431.01
2018-04-13T04:37:53.064Z,100429.35
2018-04-13T04:38:58.132Z,100431.13
2018-04-13T04:40:02.357Z,100434.61
2018-04-13T04:41:06.511Z,100425.00
2018-04-13T04:42:10.644Z,100410.88
2018-04-13T04:43:14.795Z,100419.44
2018-04-13T04:44:19.814Z,100411.13
2018-04-13T04:45:24.438Z,100415.36
2018-04-13T04:46:28.560Z,100413.37
2018-04-13T04:47:32.648Z,100411.91
2018-04-13T04:48:36.846Z,100412.51
2018-04-13T04:49:40.989Z,100406.95
2018-04-13T04:50:45.628Z,100404.39
2018-04-13T04:51:49.777Z,100401.59
2018-04-13T04:52:54.967Z,100403.46
2018-04-13T04:53:59.133Z,100392.95
2018-04-13T04:55:03.274Z,100399.74
2018-04-13T04:56:07.432Z,100394.09
2018-04-13T04:57:11.540Z,100393.88
2018-04-13T04:58:15.832Z,100389.73
2018-04-13T04:59:20.881Z,100382.17
2018-04-13T05:00:25.274Z,100389.13
2018-04-13T05:01:29.526Z,100386.77
2018-04-13T05:02:34.007Z,100387.17
2018-04-13T05:03:38.216Z,100386.11
2018-04-13T05:04:42.340Z,100392.08
2018-04-13T05:05:46.502Z,100382.17
2018-04-13T05:06:50.645Z,100379.16
2018-04-13T05:07:55.558Z,100376.59
2018-04-13T05:09:00.042Z,100376.37
2018-04-13T05:10:04.284Z,100377.52
2018-04-13T05:11:08.416Z,100373.22
2018-04-13T05:12:12.630Z,100373.84
2018-04-13T05:13:17.396Z,100370.27
2018-04-13T05:14:22.159Z,100373.72
2018-04-13T05:15:26.698Z,100368.38
2018-04-13T05:16:30.815Z,100364.47
2018-04-13T05:17:34.933Z,100372.55
2018-04-13T05:18:39.137Z,100368.11
2018-04-13T05:19:43.304Z,100370.34
2018-04-13T05:20:47.821Z,100379.30
2018-04-13T05:21:51.939Z,100371.77
2018-04-13T05:22:56.112Z,100376.31
2018-04-13T05:24:01.292Z,100371.80
2018-04-13T05:25:05.414Z,100377.77
2018-04-13T05:26:09.525Z,100368.33
2018-04-13T05:27:13.957Z,100373.98
2018-04-13T05:28:18.234Z,100373.35
2018-04-13T05:29:22.376Z,100365.91
2018-04-13T05:30:26.709Z,100368.80
2018-04-13T05:31:30.823Z,100368.30
2018-04-13T05:32:35.559Z,100369.91
2018-04-13T05:33:39.781Z,100367.86
2018-04-13T05:34:44.351Z,100370.97
2018-04-13T05:35:48.577Z,100362.02
2018-04-13T05:36:52.729Z,100370.00
2018-04-13T05:37:56.933Z,100363.91
2018-04-13T05:39:02.264Z,100368.92
2018-04-13T05:40:06.444Z,100367.84
2018-04-13T05:41:10.590Z,100368.20
2018-04-13T05:42:14.767Z,100372.90
2018-04-13T05:43:19.127Z,100373.14
2018-04-13T05:44:23.322Z,100373.91
2018-04-13T05:45:27.719Z,100382.37
2018-04-13T05:46:31.828Z,100382.40
2018-04-13T05:47:35.957Z,100383.45
2018-04-13T05:48:40.066Z,100389.48
2018-04-13T05:49:44.264Z,100391.59
2018-04-13T05:50:48.765Z,100391.53
2018-04-13T05:51:53.016Z,100404.17
2018-04-13T05:52:57.176Z,100401.30
2018-04-13T05:54:02.258Z,100405.69
2018-04-13T05:55:06.464Z,100406.10
2018-04-13T05:56:10.608Z,100407.88
2018-04-13T05:57:15.169Z,100409.86
2018-04-13T05:58:19.272Z,100410.59
2018-04-13T05:59:23.378Z,100410.49
2018-04-13T06:00:27.828Z,100409.69
2018-04-13T06:01:31.990Z,100419.34
2018-04-13T06:02:36.188Z,100422.38
2018-04-13T06:03:40.654Z,100417.23
2018-04-13T06:04:45.096Z,100420.03
2018-04-13T06:05:49.284Z,100420.00
2018-04-13T06:06:53.534Z,100421.24
2018-04-13T06:07:57.669Z,100421.24
2018-04-13T06:09:03.282Z,100423.35
2018-04-13T06:10:07.409Z,100418.52
2018-04-13T06:11:11.576Z,100423.16
2018-04-13T06:12:15.728Z,100426.27
2018-04-13T06:13:20.765Z,100427.00
2018-04-13T06:14:24.886Z,100431.75
2018-04-13T06:15:29.255Z,100437.30
2018-04-13T06:16:33.408Z,100440.67
2018-04-13T06:17:37.638Z,100439.77
2018-04-13T06:18:41.779Z,100444.86
2018-04-13T06:19:45.902Z,100444.46
2018-04-13T06:20:50.566Z,100448.17
2018-04-13T06:21:54.693Z,100442.52
2018-04-13T06:22:58.874Z,100456.73
2018-04-13T06:24:03.860Z,100453.95
2018-04-13T06:25:08.054Z,100454.15
2018-04-13T06:26:12.256Z,100455.17
2018-04-13T06:27:17.653Z,100450.98
2018-04-13T06:28:21.770Z,100456.39
2018-04-13T06:29:25.905Z,100462.73
2018-04-13T06:30:30.384Z,100468.08
2018-04-13T06:31:34.534Z,100471.94
2018-04-13T06:32:38.652Z,100473.45
2018-04-13T06:33:43.294Z,100461.31
2018-04-13T06:34:47.468Z,100463.23
2018-04-13T06:35:51.654Z,100459.85
2018-04-13T06:36:55.974Z,100459.14
2018-04-13T06:38:00.097Z,100457.55
2018-04-13T06:39:04.478Z,100458.68
2018-04-13T06:40:08.637Z,100466.30
2018-04-13T06:41:12.841Z,100462.86
2018-04-13T06:42:17.102Z,100466.15
2018-04-13T06:43:22.064Z,100457.25
2018-04-13T06:44:26.274Z,100464.02
2018-04-13T06:45:30.920Z,100460.62
2018-04-13T06:46:35.134Z,100459.03
2018-04-13T06:47:39.317Z,100467.67
2018-04-13T06:48:43.438Z,100465.50
2018-04-13T06:49:47.627Z,100459.42
2018-04-13T06:50:51.949Z,100462.39
2018-04-13T06:51:56.443Z,100463.03
2018-04-13T06:53:01.571Z,100464.06
2018-04-13T06:54:05.789Z,100465.66
2018-04-13T06:55:09.961Z,100464.40
2018-04-13T06:56:14.116Z,100461.22
2018-04-13T06:57:18.311Z,100464.52
2018-04-13T06:58:23.357Z,100469.58
2018-04-13T06:59:27.510Z,100466.18
2018-04-13T07:00:31.953Z,100471.17
2018-04-13T07:01:36.756Z,100477.25
2018-04-13T07:02:41.038Z,100480.23
2018-04-13T07:03:45.190Z,100487.90
2018-04-13T07:04:49.674Z,100480.00
2018-04-13T07:05:53.822Z,100485.89
2018-04-13T07:06:58.134Z,100489.22
2018-04-13T07:08:02.390Z,100485.42
2018-04-13T07:09:07.148Z,100496.76
2018-04-13T07:10:11.354Z,100491.63
2018-04-13T07:11:15.788Z,100496.12
2018-04-13T07:12:20.800Z,100498.58
2018-04-13T07:13:25.170Z,100500.02
2018-04-13T07:14:29.570Z,100501.73
2018-04-13T07:15:34.142Z,100501.05
2018-04-13T07:16:38.616Z,100502.86
2018-04-13T07:17:42.728Z,100500.09
2018-04-13T07:18:46.956Z,100496.73
2018-04-13T07:19:51.338Z,100496.94
2018-04-13T07:20:55.654Z,100497.55
2018-04-13T07:22:00.040Z,100495.55
2018-04-13T07:23:04.557Z,100505.00
2018-04-13T07:24:08.718Z,100500.63
2018-04-13T07:25:13.016Z,100502.38
2018-04-13T07:26:17.286Z,100505.00
2018-04-13T07:27:21.558Z,100498.27
2018-04-13T07:28:25.668Z,100495.62
2018-04-13T07:29:30.265Z,100493.53
2018-04-13T07:30:34.554Z,100496.02
2018-04-13T07:31:38.700Z,100499.41
2018-04-13T07:32:42.872Z,100494.14
2018-04-13T07:33:47.024Z,100494.94
2018-04-13T07:34:51.110Z,100498.66
2018-04-13T07:35:55.596Z,100496.77
2018-04-13T07:37:00.167Z,100503.71
2018-04-13T07:38:03.904Z,100497.89
2018-04-13T07:39:08.126Z,100497.47
2018-04-13T07:40:12.368Z,100496.78
2018-04-13T07:41:16.561Z,100507.72
2018-04-13T07:42:21.003Z,100505.56
2018-04-13T07:43:25.659Z,100512.93
2018-04-13T07:44:29.774Z,100507.38
2018-04-13T07:45:34.356Z,100507.23
2018-04-13T07:46:39.192Z,100504.75
2018-04-13T07:47:43.332Z,100510.33
2018-04-13T07:48:47.521Z,100511.71
2018-04-13T07:49:51.709Z,100516.16
2018-04-13T07:50:56.402Z,100506.41
2018-04-13T07:52:00.181Z,100506.41
2018-04-13T07:53:04.368Z,100503.72
2018-04-13T07:54:08.853Z,100506.56
2018-04-13T07:55:12.988Z,100509.10
2018-04-13T07:56:17.441Z,100507.63
2018-04-13T07:57:21.661Z,100505.34
2018-04-13T07:58:27.369Z,100505.39
2018-04-13T07:59:31.816Z,100516.13
2018-04-13T08:00:35.921Z,100513.09
2018-04-13T08:01:40.602Z,100516.25
2018-04-13T08:02:44.329Z,100516.47
2018-04-13T08:03:48.485Z,100515.05
2018-04-13T08:04:52.610Z,100517.70
2018-04-13T08:05:57.146Z,100522.02
2018-04-13T08:07:01.346Z,100525.56
2018-04-13T08:08:05.475Z,100522.56
2018-04-13T08:09:09.661Z,100518.44
2018-04-13T08:10:14.327Z,100518.61
2018-04-13T08:11:18.037Z,100514.52
2018-04-13T08:12:22.807Z,100510.27
2018-04-13T08:13:27.381Z,100507.11
2018-04-13T08:14:31.527Z,100513.19
2018-04-13T08:15:35.999Z,100507.15
2018-04-13T08:16:40.153Z,100512.73
2018-04-13T08:17:44.370Z,100504.48
2018-04-13T08:18:48.905Z,100506.33
2018-04-13T08:19:53.061Z,100501.61
2018-04-13T08:20:57.205Z,100494.95
2018-04-13T08:22:01.308Z,100493.50
2018-04-13T08:23:05.663Z,100499.91
2018-04-13T08:24:09.847Z,100495.71
2018-04-13T08:25:14.096Z,100495.52
2018-04-13T08:26:18.352Z,100495.57
2018-04-13T08:27:22.506Z,100499.25
2018-04-13T08:28:26.806Z,100501.23
2018-04-13T08:29:30.909Z,100494.98
2018-04-13T08:30:35.652Z,100496.95
2018-04-13T08:31:40.109Z,100494.83
2018-04-13T08:32:45.085Z,100500.11
2018-04-13T08:33:49.285Z,100495.23
2018-04-13T08:34:53.456Z,100498.14
2018-04-13T08:35:57.682Z,100497.14
2018-04-13T08:37:01.863Z,100497.76
2018-04-13T08:38:06.031Z,100496.89
2018-04-13T08:39:10.271Z,100500.14
2018-04-13T08:40:14.446Z,100494.99
2018-04-13T08:41:18.599Z,100495.31
2018-04-13T08:42:22.999Z,100495.27
2018-04-13T08:43:27.486Z,100495.13
2018-04-13T08:44:32.451Z,100491.52
2018-04-13T08:45:36.999Z,100492.00
2018-04-13T08:46:41.107Z,100501.30
2018-04-13T08:47:45.251Z,100494.31
2018-04-13T08:48:49.479Z,100496.83
2018-04-13T08:49:53.723Z,100490.45
2018-04-13T08:50:57.956Z,100489.73
2018-04-13T08:52:02.083Z,100484.99
2018-04-13T08:53:06.251Z,100488.80
2018-04-13T08:54:10.455Z,100488.88
2018-04-13T08:55:14.685Z,100494.89
2018-04-13T08:56:19.161Z,100492.86
2018-04-13T08:57:23.763Z,100495.39
2018-04-13T08:58:27.896Z,100500.55
2018-04-13T08:59:32.117Z,100491.94
2018-04-13T09:00:36.567Z,100494.05
2018-04-13T09:01:40.653Z,100496.98
2018-04-13T09:02:44.740Z,100494.75
2018-04-13T09:03:48.868Z,100502.55
2018-04-13T09:04:53.216Z,100500.63
2018-04-13T09:05:57.443Z,100502.91
2018-04-13T09:07:01.565Z,100501.75
2018-04-13T09:08:06.549Z,100506.22
2018-04-13T09:09:10.782Z,100505.02
2018-04-13T09:10:14.924Z,100510.13
2018-04-13T09:11:19.609Z,100506.16
2018-04-13T09:12:23.806Z,100518.25
2018-04-13T09:13:28.732Z,100519.59
2018-04-13T09:14:40.684Z,100515.73
2018-04-13T09:15:45.173Z,100522.94
2018-04-13T09:16:49.413Z,100519.95
2018-04-13T09:17:53.511Z,100527.13
2018-04-13T09:18:58.066Z,100522.75
2018-04-13T09:20:02.191Z,100525.61
2018-04-13T09:21:06.397Z,100529.48
2018-04-13T09:22:10.619Z,100527.76
2018-04-13T09:23:14.829Z,100523.05
2018-04-13T09:24:18.979Z,100529.08
2018-04-13T09:25:23.473Z,100526.23
2018-04-13T09:26:27.716Z,100532.78
2018-04-13T09:27:31.953Z,100533.91
2018-04-13T09:28:36.093Z,100536.67
2018-04-13T09:29:40.777Z,100541.75
2018-04-13T09:30:45.206Z,100544.91
2018-04-13T09:31:49.704Z,100546.78
2018-04-13T09:32:53.826Z,100548.93
2018-04-13T09:33:58.355Z,100550.44
2018-04-13T09:35:02.788Z,100545.44
2018-04-13T09:36:07.330Z,100548.38
2018-04-13T09:37:11.634Z,100551.98
2018-04-13T09:38:15.766Z,100550.95
2018-04-13T09:39:19.895Z,100556.52
2018-04-13T09:40:24.057Z,100553.92
2018-04-13T09:41:28.290Z,100555.70
2018-04-13T09:42:32.433Z,100548.91
2018-04-13T09:43:36.613Z,100554.18
2018-04-13T09:44:42.075Z,100551.84
2018-04-13T09:45:46.545Z,100553.88
2018-04-13T09:46:50.673Z,100549.01
2018-04-13T09:47:54.819Z,100552.61
2018-04-13T09:48:59.063Z,100553.16
2018-04-13T09:50:03.648Z,100550.84
2018-04-13T09:51:07.776Z,100556.61
2018-04-13T09:52:11.887Z,100560.20
2018-04-13T09:53:16.039Z,100560.74
2018-04-13T09:54:20.234Z,100555.05
2018-04-13T09:55:24.358Z,100558.51
2018-04-13T09:56:28.585Z,100562.37
2018-04-13T09:57:32.817Z,100557.30
2018-04-13T09:58:37.011Z,100562.55
2018-04-13T09:59:42.124Z,100560.50
2018-04-13T10:00:50.447Z,100568.16
2018-04-13T10:01:54.727Z,100563.69
2018-04-13T10:03:02.977Z,100568.47
2018-04-13T10:04:11.114Z,100568.36
2018-04-13T10:05:17.699Z,100567.03
2018-04-13T10:06:22.301Z,100569.73
2018-04-13T10:07:26.467Z,100574.98
2018-04-13T10:08:30.736Z,100568.52
2018-04-13T10:09:34.867Z,100568.94
2018-04-13T10:10:38.993Z,100571.92
2018-04-13T10:11:43.204Z,100574.63
2018-04-13T10:12:47.696Z,100577.88
2018-04-13T10:13:51.865Z,100577.12
2018-04-13T10:14:56.149Z,100570.38
2018-04-13T10:16:01.359Z,100564.00
2018-04-13T10:17:05.602Z,100562.05
2018-04-13T10:18:09.833Z,100565.67
2018-04-13T10:19:14.355Z,100565.77
2018-04-13T10:20:18.533Z,100564.91
2018-04-13T10:21:22.725Z,100559.39
2018-04-13T10:22:26.945Z,100557.98
2018-04-13T10:23:31.077Z,100557.95
2018-04-13T10:24:35.389Z,100567.91
2018-04-13T10:25:39.875Z,100567.14
2018-04-13T10:26:44.137Z,100563.44
2018-04-13T10:27:48.323Z,100559.52
2018-04-13T10:28:52.551Z,100558.86
2018-04-13T10:29:56.730Z,100556.74
2018-04-13T10:31:01.310Z,100557.98
2018-04-13T10:32:05.446Z,100558.25
2018-04-13T10:33:09.623Z,100561.91
2018-04-13T10:34:13.754Z,100568.70
2018-04-13T10:35:17.979Z,100573.31
2018-04-13T10:36:22.217Z,100568.48
2018-04-13T10:37:26.485Z,100568.61
2018-04-13T10:38:30.615Z,100574.64
2018-04-13T10:39:34.909Z,100571.34
2018-04-13T10:40:39.081Z,100568.86
2018-04-13T10:41:43.191Z,100574.57
2018-04-13T10:42:47.869Z,100578.47
2018-04-13T10:43:52.002Z,100575.27
2018-04-13T10:44:57.025Z,100580.88
2018-04-13T10:46:01.159Z,100573.16
2018-04-13T10:47:05.458Z,100578.24
2018-04-13T10:48:09.656Z,100578.95
2018-04-13T10:49:13.799Z,100578.19
2018-04-13T10:50:17.903Z,100581.62
2018-04-13T10:51:22.014Z,100587.89
2018-04-13T10:52:26.488Z,100589.27
2018-04-13T10:53:30.605Z,100590.00
2018-04-13T10:54:34.829Z,100588.70
2018-04-13T10:55:39.057Z,100588.52
2018-04-13T10:56:43.224Z,100589.75
2018-04-13T10:57:47.679Z,100594.77
2018-04-13T10:58:51.985Z,100594.23
2018-04-13T10:59:56.179Z,100594.62
2018-04-13T11:01:00.616Z,100589.27
2018-04-13T11:02:04.998Z,100595.47
2018-04-13T11:03:09.298Z,100597.98
2018-04-13T11:04:13.591Z,100596.08
2018-04-13T11:05:18.070Z,100590.94
2018-04-13T11:06:22.351Z,100588.98
2018-04-13T11:07:26.500Z,100586.75
2018-04-13T11:08:30.606Z,100590.63
2018-04-13T11:09:34.746Z,100588.91
2018-04-13T11:10:39.178Z,100592.98
2018-04-13T11:11:43.344Z,100600.22
2018-04-13T11:12:47.472Z,100599.91
2018-04-13T11:13:52.556Z,100605.09
2018-04-13T11:14:56.706Z,100602.83
2018-04-13T11:16:02.723Z,100603.63
2018-04-13T11:17:07.868Z,100603.98
2018-04-13T11:18:12.140Z,100604.72
2018-04-13T11:19:16.261Z,100605.54
2018-04-13T11:20:20.496Z,100597.54
2018-04-13T11:21:24.607Z,100606.66
2018-04-13T11:22:28.775Z,100610.01
2018-04-13T11:23:32.995Z,100601.38
2018-04-13T11:24:37.292Z,100605.12
2018-04-13T11:25:41.571Z,100608.62
2018-04-13T11:26:45.722Z,100603.12
2018-04-13T11:27:49.844Z,100604.06
2018-04-13T11:28:54.041Z,100602.16
2018-04-13T11:29:59.449Z,100601.44
2018-04-13T11:31:03.763Z,100605.12
2018-04-13T11:32:07.979Z,100600.61
2018-04-13T11:33:12.182Z,100605.52
2018-04-13T11:34:16.334Z,100604.78
2018-04-13T11:35:20.564Z,100612.00
2018-04-13T11:36:24.809Z,100616.48
2018-04-13T11:37:29.320Z,100614.74
2018-04-13T11:38:33.567Z,100622.81
2018-04-13T11:39:37.737Z,100624.32
2018-04-13T11:40:41.972Z,100623.41
2018-04-13T11:41:46.149Z,100615.11
2018-04-13T11:42:50.394Z,100622.32
2018-04-13T11:43:55.037Z,100616.06
2018-04-13T11:44:59.169Z,100624.46
2018-04-13T11:46:03.427Z,100628.64
2018-04-13T11:47:08.245Z,100623.34
2018-04-13T11:48:13.039Z,100617.16
2018-04-13T11:49:17.375Z,100626.05
2018-04-13T11:50:21.604Z,100622.05
2018-04-13T11:51:25.815Z,100627.50
2018-04-13T11:52:30.248Z,100622.18
2018-04-13T11:53:34.399Z,100625.61
2018-04-13T11:54:38.643Z,100618.34
2018-04-13T11:55:42.949Z,100608.07
2018-04-13T11:56:47.105Z,100607.18
2018-04-13T11:57:51.933Z,100610.94
2018-04-13T11:58:56.449Z,100611.55
2018-04-13T12:00:00.555Z,100613.14
2018-04-13T12:01:04.917Z,100619.80
2018-04-13T12:02:09.248Z,100621.08
2018-04-13T12:03:13.405Z,100622.44
2018-04-13T12:04:17.569Z,100621.69
2018-04-13T12:05:22.059Z,100620.95
2018-04-13T12:06:26.971Z,100625.03
2018-04-13T12:07:31.117Z,100625.60
2018-04-13T12:08:35.372Z,100622.12
2018-04-13T12:09:39.734Z,100623.59
2018-04-13T12:10:43.997Z,100618.36
2018-04-13T12:11:48.189Z,100615.50
2018-04-13T12:12:53.157Z,100610.55
2018-04-13T12:13:57.402Z,100614.53
2018-04-13T12:15:04.269Z,100611.72
2018-04-13T12:16:08.606Z,100616.87
2018-04-13T12:17:13.091Z,100611.36
2018-04-13T12:18:17.628Z,100603.83